sensor_id;sensor_type;location;lat;lon;timestamp;P1;durP1;ratioP1;P2;durP2;ratioP2
73733;SDS011;62039;50.000;9.064;2023-06-10T00:00:37;4.40;;;4.00;;
73733;SDS011;62039;50.000;9.064;2023-06-10T00:03:04;3.73;;;3.43;;
73733;SDS011;62039;50.000;9.064;2023-06-10T00:05:31;4.73;;;3.80;;
73733;SDS011;62039;50.000;9.064;2023-06-10T00:07:58;4.30;;;4.00;;
73733;SDS011;62039;50.000;9.064;2023-06-10T00:10:28;4.23;;;3.90;;
73733;SDS011;62039;50.000;9.064;2023-06-10T00:12:55;4.33;;;4.03;;
73733;SDS011;62039;50.000;9.064;2023-06-10T00:15:22;4.30;;;3.93;;
73733;SDS011;62039;50.000;9.064;2023-06-10T00:17:49;4.17;;;3.87;;
73733;SDS011;62039;50.000;9.064;2023-06-10T00:20:16;4.30;;;4.00;;
73733;SDS011;62039;50.000;9.064;2023-06-10T00:22:43;4.30;;;3.90;;
73733;SDS011;62039;50.000;9.064;2023-06-10T00:25:09;4.23;;;3.80;;
73733;SDS011;62039;50.000;9.064;2023-06-10T00:27:40;6.33;;;4.10;;
73733;SDS011;62039;50.000;9.064;2023-06-10T00:30:07;5.13;;;4.17;;
73733;SDS011;62039;50.000;9.064;2023-06-10T00:32:35;5.60;;;4.50;;
73733;SDS011;62039;50.000;9.064;2023-06-10T00:35:03;5.13;;;4.23;;
73733;SDS011;62039;50.000;9.064;2023-06-10T00:37:31;4.30;;;3.90;;
73733;SDS011;62039;50.000;9.064;2023-06-10T00:39:58;4.80;;;4.30;;
73733;SDS011;62039;50.000;9.064;2023-06-10T00:42:25;4.53;;;4.20;;
73733;SDS011;62039;50.000;9.064;2023-06-10T00:44:54;4.33;;;4.00;;
73733;SDS011;62039;50.000;9.064;2023-06-10T00:47:21;4.70;;;4.30;;
73733;SDS011;62039;50.000;9.064;2023-06-10T00:49:49;4.60;;;4.20;;
73733;SDS011;62039;50.000;9.064;2023-06-10T00:52:16;5.00;;;4.50;;
73733;SDS011;62039;50.000;9.064;2023-06-10T00:54:45;4.40;;;4.10;;
73733;SDS011;62039;50.000;9.064;2023-06-10T00:57:12;4.80;;;4.37;;
73733;SDS011;62039;50.000;9.064;2023-06-10T00:59:39;4.83;;;4.43;;
73733;SDS011;62039;50.000;9.064;2023-06-10T01:02:10;6.20;;;4.43;;
73733;SDS011;62039;50.000;9.064;2023-06-10T01:04:37;5.07;;;4.67;;
73733;SDS011;62039;50.000;9.064;2023-06-10T01:07:05;4.97;;;4.57;;
73733;SDS011;62039;50.000;9.064;2023-06-10T01:09:45;4.97;;;4.57;;
73733;SDS011;62039;50.000;9.064;2023-06-10T01:12:19;5.13;;;4.63;;
73733;SDS011;62039;50.000;9.064;2023-06-10T01:14:53;5.47;;;4.57;;
73733;SDS011;62039;50.000;9.064;2023-06-10T01:17:24;4.60;;;4.20;;
73733;SDS011;62039;50.000;9.064;2023-06-10T01:19:54;4.67;;;4.37;;
73733;SDS011;62039;50.000;9.064;2023-06-10T01:22:25;5.00;;;4.60;;
73733;SDS011;62039;50.000;9.064;2023-06-10T01:24:53;5.37;;;4.90;;
73733;SDS011;62039;50.000;9.064;2023-06-10T01:27:21;5.03;;;4.53;;
73733;SDS011;62039;50.000;9.064;2023-06-10T01:29:50;5.40;;;5.00;;
73733;SDS011;62039;50.000;9.064;2023-06-10T01:32:22;5.07;;;4.67;;
73733;SDS011;62039;50.000;9.064;2023-06-10T01:34:53;5.37;;;4.97;;
73733;SDS011;62039;50.000;9.064;2023-06-10T01:37:24;5.13;;;4.73;;
73733;SDS011;62039;50.000;9.064;2023-06-10T01:39:54;5.93;;;5.33;;
73733;SDS011;62039;50.000;9.064;2023-06-10T01:42:23;4.87;;;4.47;;
73733;SDS011;62039;50.000;9.064;2023-06-10T01:44:50;5.87;;;5.30;;
73733;SDS011;62039;50.000;9.064;2023-06-10T01:47:16;5.40;;;5.00;;
73733;SDS011;62039;50.000;9.064;2023-06-10T01:49:44;5.40;;;5.00;;
73733;SDS011;62039;50.000;9.064;2023-06-10T01:52:11;5.13;;;4.73;;
73733;SDS011;62039;50.000;9.064;2023-06-10T01:54:40;5.27;;;4.77;;
73733;SDS011;62039;50.000;9.064;2023-06-10T01:57:07;5.77;;;5.27;;
73733;SDS011;62039;50.000;9.064;2023-06-10T01:59:34;5.70;;;5.20;;
73733;SDS011;62039;50.000;9.064;2023-06-10T02:02:01;5.30;;;4.90;;
73733;SDS011;62039;50.000;9.064;2023-06-10T02:04:28;5.40;;;5.00;;
73733;SDS011;62039;50.000;9.064;2023-06-10T02:06:55;5.27;;;4.87;;
73733;SDS011;62039;50.000;9.064;2023-06-10T02:09:22;5.43;;;5.03;;
73733;SDS011;62039;50.000;9.064;2023-06-10T02:11:52;5.40;;;5.00;;
73733;SDS011;62039;50.000;9.064;2023-06-10T02:14:19;6.00;;;5.27;;
73733;SDS011;62039;50.000;9.064;2023-06-10T02:16:46;5.93;;;5.43;;
73733;SDS011;62039;50.000;9.064;2023-06-10T02:19:13;6.40;;;5.90;;
73733;SDS011;62039;50.000;9.064;2023-06-10T02:21:39;6.07;;;5.57;;
73733;SDS011;62039;50.000;9.064;2023-06-10T02:24:07;6.07;;;5.60;;
73733;SDS011;62039;50.000;9.064;2023-06-10T02:26:34;6.17;;;5.67;;
73733;SDS011;62039;50.000;9.064;2023-06-10T02:29:04;5.93;;;5.43;;
73733;SDS011;62039;50.000;9.064;2023-06-10T02:31:31;6.23;;;5.67;;
73733;SDS011;62039;50.000;9.064;2023-06-10T02:33:58;6.37;;;5.87;;
73733;SDS011;62039;50.000;9.064;2023-06-10T02:36:25;5.90;;;5.40;;
73733;SDS011;62039;50.000;9.064;2023-06-10T02:38:52;6.13;;;5.53;;
73733;SDS011;62039;50.000;9.064;2023-06-10T02:41:19;6.20;;;5.70;;
73733;SDS011;62039;50.000;9.064;2023-06-10T02:43:46;6.50;;;5.90;;
73733;SDS011;62039;50.000;9.064;2023-06-10T02:46:15;8.33;;;6.30;;
73733;SDS011;62039;50.000;9.064;2023-06-10T02:48:42;6.77;;;6.03;;
73733;SDS011;62039;50.000;9.064;2023-06-10T02:51:10;6.97;;;6.27;;
73733;SDS011;62039;50.000;9.064;2023-06-10T02:53:37;6.67;;;6.07;;
73733;SDS011;62039;50.000;9.064;2023-06-10T02:56:04;7.33;;;6.73;;
73733;SDS011;62039;50.000;9.064;2023-06-10T02:58:31;6.60;;;5.97;;
73733;SDS011;62039;50.000;9.064;2023-06-10T03:00:58;6.83;;;6.33;;
73733;SDS011;62039;50.000;9.064;2023-06-10T03:03:27;6.83;;;6.23;;
73733;SDS011;62039;50.000;9.064;2023-06-10T03:05:55;8.33;;;7.53;;
73733;SDS011;62039;50.000;9.064;2023-06-10T03:08:22;6.90;;;6.40;;
73733;SDS011;62039;50.000;9.064;2023-06-10T03:10:49;8.13;;;6.83;;
73733;SDS011;62039;50.000;9.064;2023-06-10T03:13:16;7.63;;;7.03;;
73733;SDS011;62039;50.000;9.064;2023-06-10T03:15:42;6.80;;;6.13;;
73733;SDS011;62039;50.000;9.064;2023-06-10T03:18:09;6.70;;;6.20;;
73733;SDS011;62039;50.000;9.064;2023-06-10T03:20:39;6.93;;;6.43;;
73733;SDS011;62039;50.000;9.064;2023-06-10T03:23:06;7.30;;;6.60;;
73733;SDS011;62039;50.000;9.064;2023-06-10T03:25:33;7.47;;;6.87;;
73733;SDS011;62039;50.000;9.064;2023-06-10T03:28:00;7.10;;;6.50;;
73733;SDS011;62039;50.000;9.064;2023-06-10T03:30:27;6.70;;;6.10;;
73733;SDS011;62039;50.000;9.064;2023-06-10T03:32:54;4.97;;;4.57;;
73733;SDS011;62039;50.000;9.064;2023-06-10T03:35:21;4.90;;;4.37;;
73733;SDS011;62039;50.000;9.064;2023-06-10T03:37:50;5.13;;;4.73;;
73733;SDS011;62039;50.000;9.064;2023-06-10T03:40:17;5.03;;;4.43;;
73733;SDS011;62039;50.000;9.064;2023-06-10T03:42:44;5.07;;;4.53;;
73733;SDS011;62039;50.000;9.064;2023-06-10T03:45:11;5.27;;;4.77;;
73733;SDS011;62039;50.000;9.064;2023-06-10T03:47:38;5.07;;;4.67;;
73733;SDS011;62039;50.000;9.064;2023-06-10T03:50:06;4.80;;;4.40;;
73733;SDS011;62039;50.000;9.064;2023-06-10T03:52:33;5.73;;;5.30;;
73733;SDS011;62039;50.000;9.064;2023-06-10T03:55:05;5.50;;;4.83;;
73733;SDS011;62039;50.000;9.064;2023-06-10T03:57:33;5.60;;;5.10;;
73733;SDS011;62039;50.000;9.064;2023-06-10T04:00:00;6.20;;;5.70;;
73733;SDS011;62039;50.000;9.064;2023-06-10T04:02:27;6.37;;;5.87;;
73733;SDS011;62039;50.000;9.064;2023-06-10T04:04:54;7.33;;;6.67;;
73733;SDS011;62039;50.000;9.064;2023-06-10T04:07:21;6.57;;;6.07;;
73733;SDS011;62039;50.000;9.064;2023-06-10T04:09:48;7.00;;;6.33;;
73733;SDS011;62039;50.000;9.064;2023-06-10T04:12:17;6.40;;;5.90;;
73733;SDS011;62039;50.000;9.064;2023-06-10T04:14:44;6.53;;;6.03;;
73733;SDS011;62039;50.000;9.064;2023-06-10T04:17:11;6.10;;;5.53;;
73733;SDS011;62039;50.000;9.064;2023-06-10T04:19:38;6.43;;;5.83;;
73733;SDS011;62039;50.000;9.064;2023-06-10T04:22:05;6.10;;;5.43;;
73733;SDS011;62039;50.000;9.064;2023-06-10T04:24:32;5.40;;;4.90;;
73733;SDS011;62039;50.000;9.064;2023-06-10T04:26:59;5.57;;;5.07;;
73733;SDS011;62039;50.000;9.064;2023-06-10T04:29:29;5.73;;;5.23;;
73733;SDS011;62039;50.000;9.064;2023-06-10T04:31:56;5.57;;;5.07;;
73733;SDS011;62039;50.000;9.064;2023-06-10T04:34:23;5.50;;;5.00;;
73733;SDS011;62039;50.000;9.064;2023-06-10T04:36:50;5.63;;;5.23;;
73733;SDS011;62039;50.000;9.064;2023-06-10T04:39:17;6.20;;;5.60;;
73733;SDS011;62039;50.000;9.064;2023-06-10T04:41:44;5.17;;;4.77;;
73733;SDS011;62039;50.000;9.064;2023-06-10T04:44:10;5.07;;;4.43;;
73733;SDS011;62039;50.000;9.064;2023-06-10T04:46:40;4.70;;;4.27;;
73733;SDS011;62039;50.000;9.064;2023-06-10T04:49:07;4.83;;;4.47;;
73733;SDS011;62039;50.000;9.064;2023-06-10T04:51:34;5.47;;;4.97;;
73733;SDS011;62039;50.000;9.064;2023-06-10T04:54:01;5.20;;;4.70;;
73733;SDS011;62039;50.000;9.064;2023-06-10T04:56:28;5.00;;;4.50;;
73733;SDS011;62039;50.000;9.064;2023-06-10T04:58:55;5.27;;;4.87;;
73733;SDS011;62039;50.000;9.064;2023-06-10T05:01:22;5.77;;;5.27;;
73733;SDS011;62039;50.000;9.064;2023-06-10T05:03:52;5.63;;;5.13;;
73733;SDS011;62039;50.000;9.064;2023-06-10T05:06:19;5.73;;;5.27;;
73733;SDS011;62039;50.000;9.064;2023-06-10T05:08:46;4.77;;;4.37;;
73733;SDS011;62039;50.000;9.064;2023-06-10T05:11:13;4.77;;;4.37;;
73733;SDS011;62039;50.000;9.064;2023-06-10T05:13:41;4.40;;;4.10;;
73733;SDS011;62039;50.000;9.064;2023-06-10T05:16:08;5.10;;;4.70;;
73733;SDS011;62039;50.000;9.064;2023-06-10T05:18:35;5.03;;;4.63;;
73733;SDS011;62039;50.000;9.064;2023-06-10T05:21:04;5.23;;;4.83;;
73733;SDS011;62039;50.000;9.064;2023-06-10T05:23:31;5.20;;;4.77;;
73733;SDS011;62039;50.000;9.064;2023-06-10T05:25:58;5.40;;;4.90;;
73733;SDS011;62039;50.000;9.064;2023-06-10T05:28:25;5.17;;;4.67;;
73733;SDS011;62039;50.000;9.064;2023-06-10T05:30:52;5.77;;;4.70;;
73733;SDS011;62039;50.000;9.064;2023-06-10T05:33:19;4.60;;;4.20;;
73733;SDS011;62039;50.000;9.064;2023-06-10T05:35:47;5.20;;;4.80;;
73733;SDS011;62039;50.000;9.064;2023-06-10T05:38:16;4.70;;;4.37;;
73733;SDS011;62039;50.000;9.064;2023-06-10T05:40:43;5.27;;;4.83;;
73733;SDS011;62039;50.000;9.064;2023-06-10T05:43:10;4.67;;;4.27;;
73733;SDS011;62039;50.000;9.064;2023-06-10T05:45:37;4.50;;;4.10;;
73733;SDS011;62039;50.000;9.064;2023-06-10T05:48:04;4.33;;;3.93;;
73733;SDS011;62039;50.000;9.064;2023-06-10T05:50:31;4.20;;;3.80;;
73733;SDS011;62039;50.000;9.064;2023-06-10T05:52:58;4.53;;;4.23;;
73733;SDS011;62039;50.000;9.064;2023-06-10T05:55:28;4.30;;;3.90;;
73733;SDS011;62039;50.000;9.064;2023-06-10T05:57:58;4.40;;;4.00;;
73733;SDS011;62039;50.000;9.064;2023-06-10T06:00:25;3.70;;;3.40;;
73733;SDS011;62039;50.000;9.064;2023-06-10T06:02:52;3.93;;;3.63;;
73733;SDS011;62039;50.000;9.064;2023-06-10T06:05:20;4.30;;;3.77;;
73733;SDS011;62039;50.000;9.064;2023-06-10T06:07:47;4.03;;;3.73;;
73733;SDS011;62039;50.000;9.064;2023-06-10T06:10:16;4.30;;;4.00;;
73733;SDS011;62039;50.000;9.064;2023-06-10T06:12:46;4.07;;;3.77;;
73733;SDS011;62039;50.000;9.064;2023-06-10T06:15:13;4.10;;;3.43;;
73733;SDS011;62039;50.000;9.064;2023-06-10T06:17:40;4.17;;;3.77;;
73733;SDS011;62039;50.000;9.064;2023-06-10T06:20:07;3.77;;;3.50;;
73733;SDS011;62039;50.000;9.064;2023-06-10T06:22:35;4.33;;;3.93;;
73733;SDS011;62039;50.000;9.064;2023-06-10T06:25:02;3.90;;;3.50;;
73733;SDS011;62039;50.000;9.064;2023-06-10T06:27:29;3.27;;;3.07;;
73733;SDS011;62039;50.000;9.064;2023-06-10T06:29:59;3.80;;;3.50;;
73733;SDS011;62039;50.000;9.064;2023-06-10T06:32:27;3.90;;;3.57;;
73733;SDS011;62039;50.000;9.064;2023-06-10T06:34:54;3.77;;;3.47;;
73733;SDS011;62039;50.000;9.064;2023-06-10T06:37:21;3.70;;;3.40;;
73733;SDS011;62039;50.000;9.064;2023-06-10T06:39:49;3.67;;;3.37;;
73733;SDS011;62039;50.000;9.064;2023-06-10T06:42:16;3.93;;;3.50;;
73733;SDS011;62039;50.000;9.064;2023-06-10T06:44:44;3.73;;;3.40;;
73733;SDS011;62039;50.000;9.064;2023-06-10T06:47:13;3.90;;;3.53;;
73733;SDS011;62039;50.000;9.064;2023-06-10T06:49:40;3.73;;;3.37;;
73733;SDS011;62039;50.000;9.064;2023-06-10T06:52:07;3.90;;;3.60;;
73733;SDS011;62039;50.000;9.064;2023-06-10T06:54:34;4.17;;;3.87;;
73733;SDS011;62039;50.000;9.064;2023-06-10T06:57:01;3.77;;;3.47;;
73733;SDS011;62039;50.000;9.064;2023-06-10T06:59:29;3.90;;;3.60;;
73733;SDS011;62039;50.000;9.064;2023-06-10T07:01:56;4.50;;;3.40;;
73733;SDS011;62039;50.000;9.064;2023-06-10T07:04:25;3.67;;;3.37;;
73733;SDS011;62039;50.000;9.064;2023-06-10T07:06:52;4.37;;;4.03;;
73733;SDS011;62039;50.000;9.064;2023-06-10T07:09:19;3.93;;;3.50;;
73733;SDS011;62039;50.000;9.064;2023-06-10T07:11:46;3.77;;;3.47;;
73733;SDS011;62039;50.000;9.064;2023-06-10T07:14:13;3.80;;;3.50;;
73733;SDS011;62039;50.000;9.064;2023-06-10T07:16:40;3.83;;;3.53;;
73733;SDS011;62039;50.000;9.064;2023-06-10T07:19:07;3.60;;;3.30;;
73733;SDS011;62039;50.000;9.064;2023-06-10T07:21:36;3.67;;;3.37;;
73733;SDS011;62039;50.000;9.064;2023-06-10T07:24:04;3.87;;;3.50;;
73733;SDS011;62039;50.000;9.064;2023-06-10T07:26:31;3.73;;;3.43;;
73733;SDS011;62039;50.000;9.064;2023-06-10T07:28:58;4.70;;;4.30;;
73733;SDS011;62039;50.000;9.064;2023-06-10T07:31:25;4.17;;;3.80;;
73733;SDS011;62039;50.000;9.064;2023-06-10T07:33:52;4.00;;;3.70;;
73733;SDS011;62039;50.000;9.064;2023-06-10T07:36:19;3.87;;;3.50;;
73733;SDS011;62039;50.000;9.064;2023-06-10T07:38:49;4.33;;;3.93;;
73733;SDS011;62039;50.000;9.064;2023-06-10T07:41:16;5.87;;;4.20;;
73733;SDS011;62039;50.000;9.064;2023-06-10T07:43:43;3.57;;;3.27;;
73733;SDS011;62039;50.000;9.064;2023-06-10T07:46:10;3.13;;;2.93;;
73733;SDS011;62039;50.000;9.064;2023-06-10T07:48:37;3.23;;;3.03;;
73733;SDS011;62039;50.000;9.064;2023-06-10T07:51:04;3.50;;;3.27;;
73733;SDS011;62039;50.000;9.064;2023-06-10T07:53:31;3.33;;;3.10;;
73733;SDS011;62039;50.000;9.064;2023-06-10T07:56:01;4.10;;;3.77;;
73733;SDS011;62039;50.000;9.064;2023-06-10T07:58:28;3.40;;;3.10;;
73733;SDS011;62039;50.000;9.064;2023-06-10T08:00:55;4.00;;;3.40;;
73733;SDS011;62039;50.000;9.064;2023-06-10T08:03:22;3.40;;;3.10;;
